Crompond, NY (10517)

8:31 PM EST on February 27, 2015 (GMT -0500)
Cortlandt Manor | Change Station
CLOSE
Current Station
Personal Weather Station
Location: Cortlandt Manor, NY
Elevation: 456 ft
Nearby Weather Stations

Elev 456 ft 41.29 °N, 73.87 °W | Updated 9 minutes ago

Clear
Clear
18.9 °F
Feels Like 19 °F
N
1.1
Wind Variable Wind from West

Today
High -- | Low -- °F
--% Chance of Precip.
Yesterday
High -- | Low -- °F
Precip. -- in
6:33 AM 5:43 PM
Waxing Gibbous, 73% visible
Pressure 30.51 in
Visibility 10.0 miles
Clouds Clear
Windchill 19 °F
Dew Point 1 °F
Humidity 45%
Rainfall 0.00 in
Snow Depth Not available.
UV 0 out of 12
Pollen .40 out of 12
Air Quality Not available.
Flu Activity Not available.
METAR KHPN 280056Z 29009KT 10SM CLR M06/M18 A3047 RMK AO2 SLP332 T10561178

More Conditions Fewer Conditions

Pressure 30.51 in
Visibility 10.0 miles
Clouds Clear
Windchill 19 °F
Dew Point 1 °F
Humidity 45%
Rainfall 0.00 in
Snow Depth Not available.
UV 0 out of 12
Pollen .40 out of 12
Air Quality Not available.
Flu Activity Not available.
METAR KHPN 280056Z 29009KT 10SM CLR M06/M18 A3047 RMK AO2 SLP332 T10561178

More Conditions Fewer Conditions

10-Day Weather Forecast

Almanac

Astronomy

Feb. 27, 2015 Rise Set
Actual Time
Civil Twilight
Nautical Twilight
Astronomical Twilight
Moon
Length of Visible Light
Length of Day
Tomorrow will be .
, % of the Moon is Illuminated

Today's Extremes

State Highs State Lows

Community

WunderPhotos

Upload Photos

1,800,917 photos uploaded!

WunderBlogs® & News

Nearby

Air Quality

  Air Quality AQ Index Pollutant
Not available.

Snow Depth

Station Depth Elevation

Earthquake Activity

City Distance Mag. Time & Date
Minimum magnitude displayed is 2.5.

Coastal Water Temperatures

Place Temperature

Nearby Weather Stations